sensor_id;sensor_type;location;lat;lon;timestamp;temperature;humidity
75113;DHT22;63692;47.338;8.520;2022-12-11T05:34:42;-1.60;92.00
75113;DHT22;63692;47.338;8.520;2022-12-11T05:37:08;-1.60;91.70
75113;DHT22;63692;47.338;8.520;2022-12-11T05:39:34;-1.50;91.70
75113;DHT22;63692;47.338;8.520;2022-12-11T05:44:28;-1.40;91.60
75113;DHT22;63692;47.338;8.520;2022-12-11T05:46:53;-1.40;91.40
75113;DHT22;63692;47.338;8.520;2022-12-11T05:49:19;-1.40;91.50
75113;DHT22;63692;47.338;8.520;2022-12-11T05:51:44;-1.40;91.50
75113;DHT22;63692;47.338;8.520;2022-12-11T05:54:10;-1.50;91.40
75113;DHT22;63692;47.338;8.520;2022-12-11T06:01:42;-1.50;91.20
75113;DHT22;63692;47.338;8.520;2022-12-11T06:04:09;-1.40;91.40
75113;DHT22;63692;47.338;8.520;2022-12-11T06:11:38;-1.90;91.30
75113;DHT22;63692;47.338;8.520;2022-12-11T06:14:05;-2.00;91.60
75113;DHT22;63692;47.338;8.520;2022-12-11T06:16:52;-2.10;91.90
75113;DHT22;63692;47.338;8.520;2022-12-11T06:19:18;-2.20;92.10
75113;DHT22;63692;47.338;8.520;2022-12-11T06:21:44;-2.20;92.20
75113;DHT22;63692;47.338;8.520;2022-12-11T06:24:10;-2.20;92.20
75113;DHT22;63692;47.338;8.520;2022-12-11T06:26:36;-2.20;92.20
75113;DHT22;63692;47.338;8.520;2022-12-11T06:29:02;-2.30;92.10
75113;DHT22;63692;47.338;8.520;2022-12-11T06:31:28;-2.30;92.20
75113;DHT22;63692;47.338;8.520;2022-12-11T06:36:22;-2.20;92.50
75113;DHT22;63692;47.338;8.520;2022-12-11T06:38:49;-2.10;92.30
75113;DHT22;63692;47.338;8.520;2022-12-11T06:41:15;-2.00;92.20
75113;DHT22;63692;47.338;8.520;2022-12-11T06:43:42;-2.00;92.00
75113;DHT22;63692;47.338;8.520;2022-12-11T06:46:12;-2.00;91.80
75113;DHT22;63692;47.338;8.520;2022-12-11T06:48:39;-1.90;91.60
75113;DHT22;63692;47.338;8.520;2022-12-11T06:51:11;-1.90;91.40
75113;DHT22;63692;47.338;8.520;2022-12-11T06:53:37;-1.80;91.30
75113;DHT22;63692;47.338;8.520;2022-12-11T06:56:05;-1.80;91.10
75113;DHT22;63692;47.338;8.520;2022-12-11T06:58:33;-1.80;91.00
75113;DHT22;63692;47.338;8.520;2022-12-11T07:00:58;-1.70;90.80
75113;DHT22;63692;47.338;8.520;2022-12-11T07:03:24;-1.70;90.70
75113;DHT22;63692;47.338;8.520;2022-12-11T07:05:50;-2.00;90.50
75113;DHT22;63692;47.338;8.520;2022-12-11T07:08:15;-2.10;90.90
75113;DHT22;63692;47.338;8.520;2022-12-11T07:10:41;-2.20;91.10
75113;DHT22;63692;47.338;8.520;2022-12-11T07:13:07;-2.40;91.50
75113;DHT22;63692;47.338;8.520;2022-12-11T07:15:32;-2.50;91.70
75113;DHT22;63692;47.338;8.520;2022-12-11T07:17:58;-2.60;92.10
75113;DHT22;63692;47.338;8.520;2022-12-11T07:20:23;-2.60;92.30
75113;DHT22;63692;47.338;8.520;2022-12-11T07:22:49;-2.60;92.30
75113;DHT22;63692;47.338;8.520;2022-12-11T07:25:14;-2.60;92.40
75113;DHT22;63692;47.338;8.520;2022-12-11T07:27:40;-2.70;92.50
75113;DHT22;63692;47.338;8.520;2022-12-11T07:30:07;-2.70;92.30
75113;DHT22;63692;47.338;8.520;2022-12-11T07:32:33;-2.60;92.40
75113;DHT22;63692;47.338;8.520;2022-12-11T07:35:00;-2.60;92.30
75113;DHT22;63692;47.338;8.520;2022-12-11T07:37:25;-2.60;92.40
75113;DHT22;63692;47.338;8.520;2022-12-11T07:39:52;-2.60;92.60
75113;DHT22;63692;47.338;8.520;2022-12-11T07:42:17;-2.50;92.50
75113;DHT22;63692;47.338;8.520;2022-12-11T07:44:43;-2.40;92.50
75113;DHT22;63692;47.338;8.520;2022-12-11T07:47:08;-2.40;92.30
75113;DHT22;63692;47.338;8.520;2022-12-11T07:49:34;-2.30;92.30
75113;DHT22;63692;47.338;8.520;2022-12-11T07:52:00;-2.20;92.10
75113;DHT22;63692;47.338;8.520;2022-12-11T07:54:25;-2.10;91.50
75113;DHT22;63692;47.338;8.520;2022-12-11T07:56:51;-2.00;91.30
75113;DHT22;63692;47.338;8.520;2022-12-11T07:59:16;-2.00;91.00
75113;DHT22;63692;47.338;8.520;2022-12-11T08:01:42;-1.90;90.80
75113;DHT22;63692;47.338;8.520;2022-12-11T08:04:10;-1.90;90.80
75113;DHT22;63692;47.338;8.520;2022-12-11T08:06:38;-1.90;90.70
75113;DHT22;63692;47.338;8.520;2022-12-11T08:09:06;-1.90;90.30
75113;DHT22;63692;47.338;8.520;2022-12-11T08:11:32;-1.90;90.00
75113;DHT22;63692;47.338;8.520;2022-12-11T08:13:58;-1.80;90.00
75113;DHT22;63692;47.338;8.520;2022-12-11T08:16:25;-1.70;90.00
75113;DHT22;63692;47.338;8.520;2022-12-11T08:18:51;-1.70;89.30
75113;DHT22;63692;47.338;8.520;2022-12-11T08:21:24;-1.60;89.40
75113;DHT22;63692;47.338;8.520;2022-12-11T08:23:51;-1.60;89.60
75113;DHT22;63692;47.338;8.520;2022-12-11T08:26:24;-1.60;89.70
75113;DHT22;63692;47.338;8.520;2022-12-11T08:28:50;-1.50;89.30
75113;DHT22;63692;47.338;8.520;2022-12-11T08:31:16;-1.60;89.00
75113;DHT22;63692;47.338;8.520;2022-12-11T08:33:43;-1.50;89.40
75113;DHT22;63692;47.338;8.520;2022-12-11T08:36:14;-1.50;89.70
75113;DHT22;63692;47.338;8.520;2022-12-11T08:38:40;-1.50;89.30
75113;DHT22;63692;47.338;8.520;2022-12-11T08:41:17;-1.40;88.90
75113;DHT22;63692;47.338;8.520;2022-12-11T08:43:43;-1.40;88.90
75113;DHT22;63692;47.338;8.520;2022-12-11T08:46:10;-1.40;88.50
75113;DHT22;63692;47.338;8.520;2022-12-11T08:48:38;-1.30;88.10
75113;DHT22;63692;47.338;8.520;2022-12-11T08:51:07;-1.20;88.30
75113;DHT22;63692;47.338;8.520;2022-12-11T08:53:33;-1.20;88.50
75113;DHT22;63692;47.338;8.520;2022-12-11T08:56:03;-1.10;88.50
75113;DHT22;63692;47.338;8.520;2022-12-11T08:58:29;-1.00;87.80
75113;DHT22;63692;47.338;8.520;2022-12-11T09:00:55;-1.00;87.10
75113;DHT22;63692;47.338;8.520;2022-12-11T09:03:21;-1.00;87.20
75113;DHT22;63692;47.338;8.520;2022-12-11T09:05:47;-1.00;87.20
75113;DHT22;63692;47.338;8.520;2022-12-11T09:08:12;-1.00;87.00
75113;DHT22;63692;47.338;8.520;2022-12-11T09:10:38;-0.90;86.90
75113;DHT22;63692;47.338;8.520;2022-12-11T09:13:04;-0.90;87.40
75113;DHT22;63692;47.338;8.520;2022-12-11T09:15:29;-0.90;87.50
75113;DHT22;63692;47.338;8.520;2022-12-11T09:17:55;-0.80;86.00
75113;DHT22;63692;47.338;8.520;2022-12-11T09:20:21;-0.80;86.20
75113;DHT22;63692;47.338;8.520;2022-12-11T09:22:46;-0.80;85.30
75113;DHT22;63692;47.338;8.520;2022-12-11T09:25:12;-0.80;84.40
75113;DHT22;63692;47.338;8.520;2022-12-11T09:27:37;-0.80;84.20
75113;DHT22;63692;47.338;8.520;2022-12-11T09:30:04;-0.80;83.70
75113;DHT22;63692;47.338;8.520;2022-12-11T09:32:30;-0.80;84.20
75113;DHT22;63692;47.338;8.520;2022-12-11T09:34:55;-0.80;84.30
75113;DHT22;63692;47.338;8.520;2022-12-11T09:37:21;-0.80;84.50
75113;DHT22;63692;47.338;8.520;2022-12-11T09:39:47;-0.90;85.20
75113;DHT22;63692;47.338;8.520;2022-12-11T09:42:24;-0.90;84.80
75113;DHT22;63692;47.338;8.520;2022-12-11T09:44:55;-0.90;85.50
75113;DHT22;63692;47.338;8.520;2022-12-11T09:47:26;-0.90;85.50
75113;DHT22;63692;47.338;8.520;2022-12-11T09:55:16;-0.90;85.50
75113;DHT22;63692;47.338;8.520;2022-12-11T10:11:36;-0.80;85.70
75113;DHT22;63692;47.338;8.520;2022-12-11T10:14:19;-0.70;85.10
75113;DHT22;63692;47.338;8.520;2022-12-11T10:19:33;-0.70;85.30
75113;DHT22;63692;47.338;8.520;2022-12-11T10:22:00;-0.70;85.80
75113;DHT22;63692;47.338;8.520;2022-12-11T10:24:38;-0.70;86.60
75113;DHT22;63692;47.338;8.520;2022-12-11T10:27:21;-0.70;85.90
75113;DHT22;63692;47.338;8.520;2022-12-11T10:29:50;-0.70;86.60
75113;DHT22;63692;47.338;8.520;2022-12-11T10:32:24;-0.70;86.80
75113;DHT22;63692;47.338;8.520;2022-12-11T10:34:59;-0.70;86.60
75113;DHT22;63692;47.338;8.520;2022-12-11T10:37:26;-0.60;86.60
75113;DHT22;63692;47.338;8.520;2022-12-11T10:39:52;-0.50;86.00
75113;DHT22;63692;47.338;8.520;2022-12-11T10:42:19;-0.50;84.80
75113;DHT22;63692;47.338;8.520;2022-12-11T10:44:58;-0.50;84.90
75113;DHT22;63692;47.338;8.520;2022-12-11T10:47:24;-0.40;84.80
75113;DHT22;63692;47.338;8.520;2022-12-11T10:52:24;-0.40;84.60
75113;DHT22;63692;47.338;8.520;2022-12-11T10:55:03;-0.40;84.40
75113;DHT22;63692;47.338;8.520;2022-12-11T10:57:32;-0.30;84.00
75113;DHT22;63692;47.338;8.520;2022-12-11T10:59:59;-0.30;84.00
75113;DHT22;63692;47.338;8.520;2022-12-11T11:02:34;-0.30;84.20
75113;DHT22;63692;47.338;8.520;2022-12-11T11:05:32;-0.30;84.90
75113;DHT22;63692;47.338;8.520;2022-12-11T11:08:22;-0.40;84.70
75113;DHT22;63692;47.338;8.520;2022-12-11T11:13:29;-0.20;85.10
75113;DHT22;63692;47.338;8.520;2022-12-11T11:16:05;-0.20;85.50
75113;DHT22;63692;47.338;8.520;2022-12-11T11:18:32;-0.20;85.30
75113;DHT22;63692;47.338;8.520;2022-12-11T11:20:59;-0.20;84.30
75113;DHT22;63692;47.338;8.520;2022-12-11T11:23:25;-0.20;85.20
75113;DHT22;63692;47.338;8.520;2022-12-11T11:25:54;-0.20;84.90
75113;DHT22;63692;47.338;8.520;2022-12-11T11:28:29;-0.20;84.10
75113;DHT22;63692;47.338;8.520;2022-12-11T11:31:07;-0.30;85.20
75113;DHT22;63692;47.338;8.520;2022-12-11T11:33:35;-0.40;85.10
75113;DHT22;63692;47.338;8.520;2022-12-11T11:36:03;-0.50;84.90
75113;DHT22;63692;47.338;8.520;2022-12-11T11:41:27;-0.60;85.50
75113;DHT22;63692;47.338;8.520;2022-12-11T11:43:54;-0.60;85.90
75113;DHT22;63692;47.338;8.520;2022-12-11T11:46:44;-0.70;86.50
75113;DHT22;63692;47.338;8.520;2022-12-11T11:55:07;-0.70;87.30
75113;DHT22;63692;47.338;8.520;2022-12-11T12:00:28;-0.70;87.40
75113;DHT22;63692;47.338;8.520;2022-12-11T12:03:05;-0.70;87.00
75113;DHT22;63692;47.338;8.520;2022-12-11T12:14:15;-0.70;87.50
75113;DHT22;63692;47.338;8.520;2022-12-11T12:16:56;-0.70;88.10
75113;DHT22;63692;47.338;8.520;2022-12-11T12:27:31;-0.10;89.50
75113;DHT22;63692;47.338;8.520;2022-12-11T12:30:05;0.00;88.90
75113;DHT22;63692;47.338;8.520;2022-12-11T12:45:58;0.50;85.10
75113;DHT22;63692;47.338;8.520;2022-12-11T12:48:27;0.60;83.90
75113;DHT22;63692;47.338;8.520;2022-12-11T12:50:53;0.70;83.70
75113;DHT22;63692;47.338;8.520;2022-12-11T12:53:23;0.70;83.70
75113;DHT22;63692;47.338;8.520;2022-12-11T12:55:50;0.80;83.30
75113;DHT22;63692;47.338;8.520;2022-12-11T12:58:40;0.70;82.80
75113;DHT22;63692;47.338;8.520;2022-12-11T13:01:26;0.80;82.40
75113;DHT22;63692;47.338;8.520;2022-12-11T13:04:01;0.80;81.40
75113;DHT22;63692;47.338;8.520;2022-12-11T13:09:18;0.90;80.20
75113;DHT22;63692;47.338;8.520;2022-12-11T13:11:47;1.00;80.60
75113;DHT22;63692;47.338;8.520;2022-12-11T13:16:45;1.30;79.90
75113;DHT22;63692;47.338;8.520;2022-12-11T13:24:31;2.00;77.80
75113;DHT22;63692;47.338;8.520;2022-12-11T13:27:25;2.20;77.10
75113;DHT22;63692;47.338;8.520;2022-12-11T13:29:51;2.30;76.20
75113;DHT22;63692;47.338;8.520;2022-12-11T13:34:49;2.60;74.90
75113;DHT22;63692;47.338;8.520;2022-12-11T13:37:37;2.70;74.00
75113;DHT22;63692;47.338;8.520;2022-12-11T13:40:18;2.90;73.80
75113;DHT22;63692;47.338;8.520;2022-12-11T13:42:48;2.90;73.40
75113;DHT22;63692;47.338;8.520;2022-12-11T13:45:37;3.00;72.70
75113;DHT22;63692;47.338;8.520;2022-12-11T13:48:14;3.10;72.60
75113;DHT22;63692;47.338;8.520;2022-12-11T13:50:42;3.20;72.40
75113;DHT22;63692;47.338;8.520;2022-12-11T13:53:15;3.30;72.00
75113;DHT22;63692;47.338;8.520;2022-12-11T13:55:41;3.40;71.40
75113;DHT22;63692;47.338;8.520;2022-12-11T13:58:19;3.40;71.20
75113;DHT22;63692;47.338;8.520;2022-12-11T14:01:07;3.00;71.90
75113;DHT22;63692;47.338;8.520;2022-12-11T14:03:39;2.70;72.90
75113;DHT22;63692;47.338;8.520;2022-12-11T14:06:09;2.40;74.00
75113;DHT22;63692;47.338;8.520;2022-12-11T14:08:37;2.30;75.20
75113;DHT22;63692;47.338;8.520;2022-12-11T14:11:04;2.10;76.10
75113;DHT22;63692;47.338;8.520;2022-12-11T14:13:38;1.90;76.50
75113;DHT22;63692;47.338;8.520;2022-12-11T14:16:05;1.80;76.90
75113;DHT22;63692;47.338;8.520;2022-12-11T14:18:34;1.60;77.20
75113;DHT22;63692;47.338;8.520;2022-12-11T14:21:03;1.50;77.60
75113;DHT22;63692;47.338;8.520;2022-12-11T14:26:00;1.30;78.40
75113;DHT22;63692;47.338;8.520;2022-12-11T14:28:28;1.00;80.50
75113;DHT22;63692;47.338;8.520;2022-12-11T14:30:57;0.80;81.50
75113;DHT22;63692;47.338;8.520;2022-12-11T14:33:28;0.50;83.20
75113;DHT22;63692;47.338;8.520;2022-12-11T14:35:56;0.30;84.90
75113;DHT22;63692;47.338;8.520;2022-12-11T14:38:27;0.20;86.20
75113;DHT22;63692;47.338;8.520;2022-12-11T14:41:02;0.20;86.90
75113;DHT22;63692;47.338;8.520;2022-12-11T14:43:35;0.20;86.70
75113;DHT22;63692;47.338;8.520;2022-12-11T14:46:09;0.20;86.80
75113;DHT22;63692;47.338;8.520;2022-12-11T14:51:09;0.20;86.90
75113;DHT22;63692;47.338;8.520;2022-12-11T14:53:41;0.20;87.10
75113;DHT22;63692;47.338;8.520;2022-12-11T14:58:42;0.00;87.50
75113;DHT22;63692;47.338;8.520;2022-12-11T15:01:22;-0.20;87.80
75113;DHT22;63692;47.338;8.520;2022-12-11T15:03:48;-0.30;88.10
75113;DHT22;63692;47.338;8.520;2022-12-11T15:06:28;-0.50;88.60
75113;DHT22;63692;47.338;8.520;2022-12-11T15:08:54;-0.50;88.50
75113;DHT22;63692;47.338;8.520;2022-12-11T15:11:20;-0.60;89.10
75113;DHT22;63692;47.338;8.520;2022-12-11T15:13:56;-0.70;89.70
75113;DHT22;63692;47.338;8.520;2022-12-11T15:16:24;-0.80;90.20
75113;DHT22;63692;47.338;8.520;2022-12-11T15:18:52;-0.80;90.40
75113;DHT22;63692;47.338;8.520;2022-12-11T15:21:27;-0.90;90.70
75113;DHT22;63692;47.338;8.520;2022-12-11T15:23:55;-1.00;90.80
75113;DHT22;63692;47.338;8.520;2022-12-11T15:26:44;-1.00;91.20
75113;DHT22;63692;47.338;8.520;2022-12-11T15:29:36;-1.10;91.20
75113;DHT22;63692;47.338;8.520;2022-12-11T15:34:57;-1.20;91.50
75113;DHT22;63692;47.338;8.520;2022-12-11T15:44:52;-1.30;92.20
75113;DHT22;63692;47.338;8.520;2022-12-11T15:47:27;-1.40;92.10
75113;DHT22;63692;47.338;8.520;2022-12-11T15:49:57;-1.40;92.20
75113;DHT22;63692;47.338;8.520;2022-12-11T15:52:23;-1.50;92.20
75113;DHT22;63692;47.338;8.520;2022-12-11T15:54:48;-1.50;92.50
75113;DHT22;63692;47.338;8.520;2022-12-11T15:57:17;-1.50;92.20
75113;DHT22;63692;47.338;8.520;2022-12-11T15:59:45;-1.50;92.10
75113;DHT22;63692;47.338;8.520;2022-12-11T16:02:13;-1.40;91.90
75113;DHT22;63692;47.338;8.520;2022-12-11T16:04:39;-1.30;91.70
75113;DHT22;63692;47.338;8.520;2022-12-11T16:07:20;-1.40;91.70
75113;DHT22;63692;47.338;8.520;2022-12-11T16:09:46;-1.50;91.80
75113;DHT22;63692;47.338;8.520;2022-12-11T16:12:13;-1.40;91.90
75113;DHT22;63692;47.338;8.520;2022-12-11T16:14:40;-1.40;91.80
75113;DHT22;63692;47.338;8.520;2022-12-11T16:17:07;-1.40;91.70
75113;DHT22;63692;47.338;8.520;2022-12-11T16:19:33;-1.60;91.80
75113;DHT22;63692;47.338;8.520;2022-12-11T16:22:07;-1.60;92.00
75113;DHT22;63692;47.338;8.520;2022-12-11T16:24:33;-1.70;92.10
75113;DHT22;63692;47.338;8.520;2022-12-11T16:26:59;-1.60;92.10
75113;DHT22;63692;47.338;8.520;2022-12-11T16:29:25;-1.60;92.20
75113;DHT22;63692;47.338;8.520;2022-12-11T16:31:53;-1.70;92.30
75113;DHT22;63692;47.338;8.520;2022-12-11T16:34:30;-1.60;92.50
75113;DHT22;63692;47.338;8.520;2022-12-11T16:36:58;-1.70;92.40
75113;DHT22;63692;47.338;8.520;2022-12-11T16:39:24;-1.70;92.40
75113;DHT22;63692;47.338;8.520;2022-12-11T16:41:50;-1.70;92.40
75113;DHT22;63692;47.338;8.520;2022-12-11T16:44:21;-1.60;92.50
75113;DHT22;63692;47.338;8.520;2022-12-11T16:46:47;-1.70;92.00
75113;DHT22;63692;47.338;8.520;2022-12-11T16:49:13;-1.70;92.20
75113;DHT22;63692;47.338;8.520;2022-12-11T16:51:39;-1.70;92.30
75113;DHT22;63692;47.338;8.520;2022-12-11T16:54:05;-1.70;91.80
75113;DHT22;63692;47.338;8.520;2022-12-11T16:56:31;-1.70;92.00
75113;DHT22;63692;47.338;8.520;2022-12-11T16:58:57;-1.60;92.20
75113;DHT22;63692;47.338;8.520;2022-12-11T17:01:22;-1.60;92.30
75113;DHT22;63692;47.338;8.520;2022-12-11T17:03:48;-1.50;92.30
75113;DHT22;63692;47.338;8.520;2022-12-11T17:06:15;-1.50;92.10
75113;DHT22;63692;47.338;8.520;2022-12-11T17:08:41;-1.50;91.90
75113;DHT22;63692;47.338;8.520;2022-12-11T17:11:09;-1.40;91.80
75113;DHT22;63692;47.338;8.520;2022-12-11T17:13:35;-1.40;91.70
75113;DHT22;63692;47.338;8.520;2022-12-11T17:16:12;-1.40;91.90
75113;DHT22;63692;47.338;8.520;2022-12-11T17:18:39;-1.40;92.20
75113;DHT22;63692;47.338;8.520;2022-12-11T17:21:06;-1.30;92.10
75113;DHT22;63692;47.338;8.520;2022-12-11T17:23:33;-1.30;92.10
75113;DHT22;63692;47.338;8.520;2022-12-11T17:25:59;-1.20;92.20
75113;DHT22;63692;47.338;8.520;2022-12-11T17:28:25;-1.20;92.00
75113;DHT22;63692;47.338;8.520;2022-12-11T17:30:51;-1.20;92.30
75113;DHT22;63692;47.338;8.520;2022-12-11T17:33:17;-1.20;92.00
75113;DHT22;63692;47.338;8.520;2022-12-11T17:35:43;-1.20;92.00
75113;DHT22;63692;47.338;8.520;2022-12-11T17:38:09;-1.20;92.10
75113;DHT22;63692;47.338;8.520;2022-12-11T17:40:39;-1.20;92.10
75113;DHT22;63692;47.338;8.520;2022-12-11T17:43:04;-1.20;91.90
75113;DHT22;63692;47.338;8.520;2022-12-11T17:45:38;-1.10;92.10
75113;DHT22;63692;47.338;8.520;2022-12-11T17:48:04;-1.20;91.90
75113;DHT22;63692;47.338;8.520;2022-12-11T17:50:30;-1.40;92.00
75113;DHT22;63692;47.338;8.520;2022-12-11T17:52:56;-1.50;92.30
75113;DHT22;63692;47.338;8.520;2022-12-11T17:55:22;-1.60;92.40
75113;DHT22;63692;47.338;8.520;2022-12-11T17:57:47;-1.70;92.50
75113;DHT22;63692;47.338;8.520;2022-12-11T18:00:14;-1.70;92.60
75113;DHT22;63692;47.338;8.520;2022-12-11T18:05:07;-1.70;92.70
75113;DHT22;63692;47.338;8.520;2022-12-11T18:07:37;-1.80;92.60
75113;DHT22;63692;47.338;8.520;2022-12-11T18:17:43;-2.00;92.90
75113;DHT22;63692;47.338;8.520;2022-12-11T18:25:28;-2.20;93.30
75113;DHT22;63692;47.338;8.520;2022-12-11T18:27:54;-2.10;93.50
75113;DHT22;63692;47.338;8.520;2022-12-11T18:30:20;-2.10;93.30
75113;DHT22;63692;47.338;8.520;2022-12-11T18:32:47;-2.10;93.20
75113;DHT22;63692;47.338;8.520;2022-12-11T18:35:13;-2.00;92.80
75113;DHT22;63692;47.338;8.520;2022-12-11T18:37:39;-2.00;92.70
75113;DHT22;63692;47.338;8.520;2022-12-11T18:42:33;-2.00;92.50
75113;DHT22;63692;47.338;8.520;2022-12-11T18:44:59;-2.20;92.70
75113;DHT22;63692;47.338;8.520;2022-12-11T18:47:25;-2.30;92.90
75113;DHT22;63692;47.338;8.520;2022-12-11T18:49:50;-2.40;93.10
75113;DHT22;63692;47.338;8.520;2022-12-11T18:52:23;-2.40;93.20
75113;DHT22;63692;47.338;8.520;2022-12-11T18:54:49;-2.40;93.10
75113;DHT22;63692;47.338;8.520;2022-12-11T18:57:40;-2.40;93.00
75113;DHT22;63692;47.338;8.520;2022-12-11T19:00:25;-2.40;92.80
75113;DHT22;63692;47.338;8.520;2022-12-11T19:05:19;-2.50;92.60
75113;DHT22;63692;47.338;8.520;2022-12-11T19:07:44;-2.60;92.70
75113;DHT22;63692;47.338;8.520;2022-12-11T19:10:10;-2.60;92.80
75113;DHT22;63692;47.338;8.520;2022-12-11T19:12:40;-2.50;92.90
75113;DHT22;63692;47.338;8.520;2022-12-11T19:15:08;-2.40;93.00
75113;DHT22;63692;47.338;8.520;2022-12-11T19:17:35;-2.40;92.60
75113;DHT22;63692;47.338;8.520;2022-12-11T19:20:01;-2.50;92.50
75113;DHT22;63692;47.338;8.520;2022-12-11T19:22:27;-2.60;92.80
75113;DHT22;63692;47.338;8.520;2022-12-11T19:24:52;-2.50;93.10
75113;DHT22;63692;47.338;8.520;2022-12-11T19:27:21;-2.60;92.70
75113;DHT22;63692;47.338;8.520;2022-12-11T19:29:47;-2.70;92.90
75113;DHT22;63692;47.338;8.520;2022-12-11T19:32:12;-2.70;93.00
75113;DHT22;63692;47.338;8.520;2022-12-11T19:34:38;-2.70;93.10
75113;DHT22;63692;47.338;8.520;2022-12-11T19:37:05;-2.70;93.10
75113;DHT22;63692;47.338;8.520;2022-12-11T19:39:30;-2.70;92.90
75113;DHT22;63692;47.338;8.520;2022-12-11T19:41:56;-2.80;93.00
75113;DHT22;63692;47.338;8.520;2022-12-11T19:44:21;-2.90;93.20
75113;DHT22;63692;47.338;8.520;2022-12-11T19:46:47;-2.90;93.10
75113;DHT22;63692;47.338;8.520;2022-12-11T19:49:24;-2.90;93.20
75113;DHT22;63692;47.338;8.520;2022-12-11T19:55:12;-2.70;93.50
75113;DHT22;63692;47.338;8.520;2022-12-11T21:13:18;-2.40;91.90
75113;DHT22;63692;47.338;8.520;2022-12-11T21:15:44;-2.40;91.90
75113;DHT22;63692;47.338;8.520;2022-12-11T21:18:09;-2.40;91.90
75113;DHT22;63692;47.338;8.520;2022-12-11T21:20:35;-2.40;91.90
75113;DHT22;63692;47.338;8.520;2022-12-11T21:23:01;-2.40;91.90
75113;DHT22;63692;47.338;8.520;2022-12-11T21:25:28;-2.40;91.90
75113;DHT22;63692;47.338;8.520;2022-12-11T21:27:54;-2.40;92.00
75113;DHT22;63692;47.338;8.520;2022-12-11T21:30:19;-2.40;91.90
75113;DHT22;63692;47.338;8.520;2022-12-11T21:32:45;-2.40;92.00
